sensor_id;sensor_type;location;lat;lon;timestamp;P1;durP1;ratioP1;P2;durP2;ratioP2
63818;SDS011;49970;54.976;73.248;2022-09-16T00:00:55;140.15;;;77.68;;
63818;SDS011;49970;54.976;73.248;2022-09-16T00:03:21;154.23;;;75.30;;
63818;SDS011;49970;54.976;73.248;2022-09-16T00:05:58;147.25;;;73.40;;
63818;SDS011;49970;54.976;73.248;2022-09-16T00:08:24;131.57;;;69.82;;
63818;SDS011;49970;54.976;73.248;2022-09-16T00:10:50;123.68;;;73.07;;
63818;SDS011;49970;54.976;73.248;2022-09-16T00:13:27;134.13;;;72.22;;
63818;SDS011;49970;54.976;73.248;2022-09-16T00:16:07;158.00;;;80.38;;
63818;SDS011;49970;54.976;73.248;2022-09-16T00:18:38;150.55;;;80.60;;
63818;SDS011;49970;54.976;73.248;2022-09-16T00:21:08;111.30;;;63.20;;
63818;SDS011;49970;54.976;73.248;2022-09-16T00:25:00;128.60;;;67.38;;
63818;SDS011;49970;54.976;73.248;2022-09-16T00:28:51;115.43;;;59.45;;
63818;SDS011;49970;54.976;73.248;2022-09-16T00:31:17;121.65;;;59.53;;
63818;SDS011;49970;54.976;73.248;2022-09-16T00:33:54;106.07;;;56.13;;
63818;SDS011;49970;54.976;73.248;2022-09-16T00:36:20;97.55;;;54.88;;
63818;SDS011;49970;54.976;73.248;2022-09-16T00:38:50;103.40;;;55.03;;
63818;SDS011;49970;54.976;73.248;2022-09-16T00:41:18;100.13;;;51.95;;
63818;SDS011;49970;54.976;73.248;2022-09-16T00:43:51;101.07;;;53.78;;
63818;SDS011;49970;54.976;73.248;2022-09-16T00:46:38;100.28;;;51.22;;
63818;SDS011;49970;54.976;73.248;2022-09-16T00:49:13;96.60;;;50.72;;
63818;SDS011;49970;54.976;73.248;2022-09-16T00:51:44;86.72;;;45.20;;
63818;SDS011;49970;54.976;73.248;2022-09-16T00:54:19;95.90;;;51.90;;
63818;SDS011;49970;54.976;73.248;2022-09-16T01:00:55;86.72;;;47.65;;
63818;SDS011;49970;54.976;73.248;2022-09-16T01:03:27;85.32;;;47.35;;
63818;SDS011;49970;54.976;73.248;2022-09-16T01:05:55;95.25;;;51.97;;
63818;SDS011;49970;54.976;73.248;2022-09-16T01:08:32;107.75;;;53.03;;
63818;SDS011;49970;54.976;73.248;2022-09-16T01:11:02;101.88;;;52.10;;
63818;SDS011;49970;54.976;73.248;2022-09-16T01:13:28;112.82;;;56.97;;
63818;SDS011;49970;54.976;73.248;2022-09-16T01:16:08;107.55;;;54.80;;
63818;SDS011;49970;54.976;73.248;2022-09-16T01:21:42;83.85;;;44.90;;
63818;SDS011;49970;54.976;73.248;2022-09-16T01:30:05;91.38;;;41.08;;
63818;SDS011;49970;54.976;73.248;2022-09-16T01:33:00;77.00;;;39.88;;
63818;SDS011;49970;54.976;73.248;2022-09-16T01:36:13;82.40;;;41.25;;
63818;SDS011;49970;54.976;73.248;2022-09-16T01:41:35;76.07;;;36.23;;
63818;SDS011;49970;54.976;73.248;2022-09-16T01:46:53;83.30;;;38.42;;
63818;SDS011;49970;54.976;73.248;2022-09-16T01:52:23;73.38;;;36.03;;
63818;SDS011;49970;54.976;73.248;2022-09-16T01:55:04;74.97;;;37.30;;
63818;SDS011;49970;54.976;73.248;2022-09-16T01:57:45;69.95;;;37.95;;
63818;SDS011;49970;54.976;73.248;2022-09-16T02:00:23;88.90;;;38.42;;
63818;SDS011;49970;54.976;73.248;2022-09-16T02:05:46;77.10;;;37.22;;
63818;SDS011;49970;54.976;73.248;2022-09-16T02:08:18;91.00;;;40.75;;
63818;SDS011;49970;54.976;73.248;2022-09-16T02:10:59;62.55;;;36.17;;
63818;SDS011;49970;54.976;73.248;2022-09-16T02:13:39;82.95;;;37.65;;
63818;SDS011;49970;54.976;73.248;2022-09-16T02:16:11;87.60;;;36.88;;
63818;SDS011;49970;54.976;73.248;2022-09-16T02:18:41;87.38;;;38.38;;
63818;SDS011;49970;54.976;73.248;2022-09-16T02:21:14;83.60;;;36.67;;
63818;SDS011;49970;54.976;73.248;2022-09-16T02:23:53;68.90;;;37.00;;
63818;SDS011;49970;54.976;73.248;2022-09-16T02:26:24;74.35;;;36.47;;
63818;SDS011;49970;54.976;73.248;2022-09-16T02:29:00;87.63;;;37.97;;
63818;SDS011;49970;54.976;73.248;2022-09-16T02:31:30;86.90;;;34.70;;
63818;SDS011;49970;54.976;73.248;2022-09-16T02:34:01;79.47;;;33.88;;
63818;SDS011;49970;54.976;73.248;2022-09-16T02:36:32;96.40;;;36.03;;
63818;SDS011;49970;54.976;73.248;2022-09-16T02:39:12;72.68;;;35.85;;
63818;SDS011;49970;54.976;73.248;2022-09-16T02:41:53;72.43;;;35.88;;
63818;SDS011;49970;54.976;73.248;2022-09-16T02:44:22;80.15;;;32.03;;
63818;SDS011;49970;54.976;73.248;2022-09-16T02:49:39;71.15;;;30.98;;
63818;SDS011;49970;54.976;73.248;2022-09-16T02:55:29;82.35;;;28.45;;
63818;SDS011;49970;54.976;73.248;2022-09-16T02:58:03;102.60;;;29.13;;
63818;SDS011;49970;54.976;73.248;2022-09-16T03:00:36;88.15;;;27.88;;
63818;SDS011;49970;54.976;73.248;2022-09-16T03:03:07;106.25;;;27.90;;
63818;SDS011;49970;54.976;73.248;2022-09-16T03:05:33;112.93;;;30.65;;
63818;SDS011;49970;54.976;73.248;2022-09-16T03:08:00;92.15;;;27.73;;
63818;SDS011;49970;54.976;73.248;2022-09-16T03:10:31;107.18;;;31.30;;
63818;SDS011;49970;54.976;73.248;2022-09-16T03:13:27;125.78;;;30.20;;
63818;SDS011;49970;54.976;73.248;2022-09-16T03:16:11;112.70;;;29.73;;
63818;SDS011;49970;54.976;73.248;2022-09-16T03:18:55;80.35;;;24.52;;
63818;SDS011;49970;54.976;73.248;2022-09-16T03:21:46;89.88;;;27.10;;
63818;SDS011;49970;54.976;73.248;2022-09-16T03:27:19;113.95;;;30.88;;
63818;SDS011;49970;54.976;73.248;2022-09-16T03:30:03;105.75;;;28.83;;
63818;SDS011;49970;54.976;73.248;2022-09-16T03:32:53;120.97;;;30.33;;
63818;SDS011;49970;54.976;73.248;2022-09-16T03:35:25;136.43;;;32.75;;
63818;SDS011;49970;54.976;73.248;2022-09-16T03:37:58;178.65;;;31.33;;
63818;SDS011;49970;54.976;73.248;2022-09-16T03:40:26;158.90;;;34.00;;
63818;SDS011;49970;54.976;73.248;2022-09-16T03:42:57;144.07;;;36.17;;
63818;SDS011;49970;54.976;73.248;2022-09-16T03:45:23;138.82;;;36.45;;
63818;SDS011;49970;54.976;73.248;2022-09-16T03:47:50;105.13;;;28.17;;
63818;SDS011;49970;54.976;73.248;2022-09-16T03:50:18;115.22;;;36.30;;
63818;SDS011;49970;54.976;73.248;2022-09-16T03:52:45;110.07;;;31.63;;
63818;SDS011;49970;54.976;73.248;2022-09-16T03:55:12;95.68;;;27.00;;
63818;SDS011;49970;54.976;73.248;2022-09-16T03:57:38;153.07;;;25.70;;
63818;SDS011;49970;54.976;73.248;2022-09-16T04:00:05;157.43;;;23.98;;
63818;SDS011;49970;54.976;73.248;2022-09-16T04:02:38;133.52;;;24.63;;
63818;SDS011;49970;54.976;73.248;2022-09-16T04:05:10;154.02;;;23.90;;
63818;SDS011;49970;54.976;73.248;2022-09-16T04:07:36;130.95;;;23.63;;
63818;SDS011;49970;54.976;73.248;2022-09-16T04:10:07;88.25;;;13.20;;
63818;SDS011;49970;54.976;73.248;2022-09-16T04:12:36;85.40;;;15.35;;
63818;SDS011;49970;54.976;73.248;2022-09-16T04:15:03;75.78;;;14.18;;
63818;SDS011;49970;54.976;73.248;2022-09-16T04:17:35;76.15;;;12.75;;
63818;SDS011;49970;54.976;73.248;2022-09-16T04:20:02;89.57;;;12.73;;
63818;SDS011;49970;54.976;73.248;2022-09-16T04:22:29;120.00;;;14.80;;
63818;SDS011;49970;54.976;73.248;2022-09-16T04:25:06;68.15;;;12.95;;
63818;SDS011;49970;54.976;73.248;2022-09-16T04:27:33;89.50;;;12.48;;
63818;SDS011;49970;54.976;73.248;2022-09-16T04:29:59;41.88;;;10.48;;
63818;SDS011;49970;54.976;73.248;2022-09-16T04:32:26;68.43;;;10.70;;
63818;SDS011;49970;54.976;73.248;2022-09-16T04:34:52;79.25;;;10.85;;
63818;SDS011;49970;54.976;73.248;2022-09-16T04:37:19;43.25;;;8.98;;
63818;SDS011;49970;54.976;73.248;2022-09-16T04:39:46;48.45;;;9.05;;
63818;SDS011;49970;54.976;73.248;2022-09-16T04:42:12;77.82;;;7.72;;
63818;SDS011;49970;54.976;73.248;2022-09-16T04:44:38;70.97;;;6.40;;
63818;SDS011;49970;54.976;73.248;2022-09-16T04:47:04;80.68;;;7.65;;
63818;SDS011;49970;54.976;73.248;2022-09-16T04:49:31;48.75;;;6.43;;
63818;SDS011;49970;54.976;73.248;2022-09-16T04:51:57;56.10;;;7.25;;
63818;SDS011;49970;54.976;73.248;2022-09-16T04:54:24;45.47;;;8.88;;
63818;SDS011;49970;54.976;73.248;2022-09-16T04:56:50;38.92;;;6.15;;
63818;SDS011;49970;54.976;73.248;2022-09-16T04:59:17;52.35;;;6.95;;
63818;SDS011;49970;54.976;73.248;2022-09-16T05:01:43;30.55;;;6.63;;
63818;SDS011;49970;54.976;73.248;2022-09-16T05:04:10;26.50;;;5.25;;
63818;SDS011;49970;54.976;73.248;2022-09-16T05:06:38;44.03;;;5.55;;
63818;SDS011;49970;54.976;73.248;2022-09-16T05:09:05;79.95;;;6.55;;
63818;SDS011;49970;54.976;73.248;2022-09-16T05:11:34;13.45;;;3.67;;
63818;SDS011;49970;54.976;73.248;2022-09-16T05:14:04;19.30;;;3.80;;
63818;SDS011;49970;54.976;73.248;2022-09-16T05:16:33;13.38;;;3.40;;
63818;SDS011;49970;54.976;73.248;2022-09-16T05:19:00;25.40;;;4.35;;
63818;SDS011;49970;54.976;73.248;2022-09-16T05:21:30;7.70;;;3.88;;
63818;SDS011;49970;54.976;73.248;2022-09-16T05:23:59;22.33;;;3.63;;
63818;SDS011;49970;54.976;73.248;2022-09-16T05:26:28;15.50;;;2.80;;
63818;SDS011;49970;54.976;73.248;2022-09-16T05:28:58;11.60;;;2.65;;
63818;SDS011;49970;54.976;73.248;2022-09-16T05:31:26;20.10;;;3.78;;
63818;SDS011;49970;54.976;73.248;2022-09-16T05:34:02;24.10;;;2.92;;
63818;SDS011;49970;54.976;73.248;2022-09-16T05:36:29;28.13;;;4.22;;
63818;SDS011;49970;54.976;73.248;2022-09-16T05:38:57;10.60;;;3.17;;
63818;SDS011;49970;54.976;73.248;2022-09-16T05:41:24;6.38;;;2.38;;
63818;SDS011;49970;54.976;73.248;2022-09-16T05:43:58;12.55;;;3.42;;
63818;SDS011;49970;54.976;73.248;2022-09-16T05:46:25;12.40;;;2.38;;
63818;SDS011;49970;54.976;73.248;2022-09-16T05:48:53;29.60;;;3.55;;
63818;SDS011;49970;54.976;73.248;2022-09-16T05:51:20;29.80;;;3.47;;
63818;SDS011;49970;54.976;73.248;2022-09-16T05:53:48;19.20;;;2.65;;
63818;SDS011;49970;54.976;73.248;2022-09-16T05:56:16;23.52;;;2.63;;
63818;SDS011;49970;54.976;73.248;2022-09-16T05:58:45;18.85;;;2.90;;
63818;SDS011;49970;54.976;73.248;2022-09-16T06:01:13;11.85;;;1.92;;
63818;SDS011;49970;54.976;73.248;2022-09-16T06:03:42;8.20;;;3.13;;
63818;SDS011;49970;54.976;73.248;2022-09-16T06:06:13;20.05;;;2.83;;
63818;SDS011;49970;54.976;73.248;2022-09-16T06:08:56;10.90;;;2.95;;
63818;SDS011;49970;54.976;73.248;2022-09-16T06:11:28;8.73;;;2.88;;
63818;SDS011;49970;54.976;73.248;2022-09-16T06:13:56;11.45;;;3.67;;
63818;SDS011;49970;54.976;73.248;2022-09-16T06:16:25;18.70;;;4.50;;
63818;SDS011;49970;54.976;73.248;2022-09-16T06:18:53;25.08;;;4.70;;
63818;SDS011;49970;54.976;73.248;2022-09-16T06:21:20;12.18;;;4.25;;
63818;SDS011;49970;54.976;73.248;2022-09-16T06:23:47;14.93;;;3.70;;
63818;SDS011;49970;54.976;73.248;2022-09-16T06:26:14;9.25;;;2.97;;
63818;SDS011;49970;54.976;73.248;2022-09-16T06:28:43;5.18;;;3.22;;
63818;SDS011;49970;54.976;73.248;2022-09-16T06:31:12;17.40;;;3.60;;
63818;SDS011;49970;54.976;73.248;2022-09-16T06:33:50;5.28;;;3.78;;
63818;SDS011;49970;54.976;73.248;2022-09-16T06:36:18;19.35;;;3.60;;
63818;SDS011;49970;54.976;73.248;2022-09-16T06:38:51;6.88;;;3.42;;
63818;SDS011;49970;54.976;73.248;2022-09-16T06:41:27;6.85;;;3.50;;
63818;SDS011;49970;54.976;73.248;2022-09-16T06:43:55;4.40;;;3.17;;
63818;SDS011;49970;54.976;73.248;2022-09-16T06:46:26;10.80;;;3.45;;
63818;SDS011;49970;54.976;73.248;2022-09-16T06:48:54;4.57;;;4.00;;
63818;SDS011;49970;54.976;73.248;2022-09-16T06:51:22;11.82;;;4.00;;
63818;SDS011;49970;54.976;73.248;2022-09-16T06:53:50;17.05;;;3.30;;
63818;SDS011;49970;54.976;73.248;2022-09-16T06:56:18;17.65;;;4.15;;
63818;SDS011;49970;54.976;73.248;2022-09-16T06:58:46;4.00;;;2.63;;
63818;SDS011;49970;54.976;73.248;2022-09-16T07:01:15;7.22;;;2.58;;
63818;SDS011;49970;54.976;73.248;2022-09-16T07:03:46;4.05;;;3.28;;
63818;SDS011;49970;54.976;73.248;2022-09-16T07:06:14;8.10;;;3.08;;
63818;SDS011;49970;54.976;73.248;2022-09-16T07:08:52;6.90;;;2.85;;
63818;SDS011;49970;54.976;73.248;2022-09-16T07:11:28;23.13;;;2.88;;
63818;SDS011;49970;54.976;73.248;2022-09-16T07:13:54;4.03;;;2.60;;
63818;SDS011;49970;54.976;73.248;2022-09-16T07:16:25;14.80;;;2.55;;
63818;SDS011;49970;54.976;73.248;2022-09-16T07:18:52;15.35;;;3.13;;
63818;SDS011;49970;54.976;73.248;2022-09-16T07:21:24;6.90;;;2.63;;
63818;SDS011;49970;54.976;73.248;2022-09-16T07:24:04;17.92;;;2.53;;
63818;SDS011;49970;54.976;73.248;2022-09-16T07:26:32;12.65;;;3.00;;
63818;SDS011;49970;54.976;73.248;2022-09-16T07:29:00;28.00;;;3.50;;
63818;SDS011;49970;54.976;73.248;2022-09-16T07:31:33;17.52;;;2.45;;
63818;SDS011;49970;54.976;73.248;2022-09-16T07:34:01;17.05;;;2.20;;
63818;SDS011;49970;54.976;73.248;2022-09-16T07:36:29;10.60;;;2.40;;
63818;SDS011;49970;54.976;73.248;2022-09-16T07:39:06;13.32;;;2.13;;
63818;SDS011;49970;54.976;73.248;2022-09-16T07:41:37;10.43;;;2.10;;
63818;SDS011;49970;54.976;73.248;2022-09-16T07:44:05;6.18;;;2.10;;
63818;SDS011;49970;54.976;73.248;2022-09-16T07:46:34;21.75;;;2.47;;
63818;SDS011;49970;54.976;73.248;2022-09-16T07:49:02;5.25;;;2.80;;
63818;SDS011;49970;54.976;73.248;2022-09-16T07:51:30;4.75;;;2.13;;
63818;SDS011;49970;54.976;73.248;2022-09-16T07:54:03;7.72;;;2.40;;
63818;SDS011;49970;54.976;73.248;2022-09-16T07:56:34;15.82;;;2.80;;
63818;SDS011;49970;54.976;73.248;2022-09-16T07:59:04;11.50;;;1.85;;
63818;SDS011;49970;54.976;73.248;2022-09-16T08:01:31;9.93;;;1.80;;
63818;SDS011;49970;54.976;73.248;2022-09-16T08:03:59;20.75;;;1.83;;
63818;SDS011;49970;54.976;73.248;2022-09-16T08:06:27;16.85;;;2.22;;
63818;SDS011;49970;54.976;73.248;2022-09-16T08:08:55;4.90;;;1.70;;
63818;SDS011;49970;54.976;73.248;2022-09-16T08:11:25;20.65;;;1.77;;
63818;SDS011;49970;54.976;73.248;2022-09-16T08:13:52;6.10;;;1.77;;
63818;SDS011;49970;54.976;73.248;2022-09-16T08:16:20;25.70;;;2.15;;
63818;SDS011;49970;54.976;73.248;2022-09-16T08:18:48;4.72;;;2.40;;
63818;SDS011;49970;54.976;73.248;2022-09-16T08:21:17;4.15;;;1.83;;
63818;SDS011;49970;54.976;73.248;2022-09-16T08:23:45;9.13;;;1.70;;
63818;SDS011;49970;54.976;73.248;2022-09-16T08:26:13;10.15;;;1.92;;
63818;SDS011;49970;54.976;73.248;2022-09-16T08:28:41;6.13;;;1.55;;
63818;SDS011;49970;54.976;73.248;2022-09-16T08:31:09;7.03;;;1.42;;
63818;SDS011;49970;54.976;73.248;2022-09-16T08:33:37;6.70;;;1.50;;
63818;SDS011;49970;54.976;73.248;2022-09-16T08:36:12;9.38;;;1.60;;
63818;SDS011;49970;54.976;73.248;2022-09-16T08:38:45;11.65;;;1.63;;
63818;SDS011;49970;54.976;73.248;2022-09-16T08:41:25;8.52;;;2.10;;
63818;SDS011;49970;54.976;73.248;2022-09-16T08:44:02;10.75;;;1.85;;
63818;SDS011;49970;54.976;73.248;2022-09-16T08:46:53;12.35;;;2.28;;
63818;SDS011;49970;54.976;73.248;2022-09-16T08:54:45;13.50;;;1.90;;
63818;SDS011;49970;54.976;73.248;2022-09-16T08:57:22;7.93;;;1.80;;
63818;SDS011;49970;54.976;73.248;2022-09-16T08:59:55;11.82;;;1.60;;
63818;SDS011;49970;54.976;73.248;2022-09-16T09:05:12;10.00;;;1.98;;
63818;SDS011;49970;54.976;73.248;2022-09-16T09:10:39;8.23;;;2.13;;
63818;SDS011;49970;54.976;73.248;2022-09-16T09:15:57;11.07;;;1.55;;
63818;SDS011;49970;54.976;73.248;2022-09-16T09:18:36;3.47;;;1.50;;
63818;SDS011;49970;54.976;73.248;2022-09-16T09:24:25;7.60;;;1.50;;
63818;SDS011;49970;54.976;73.248;2022-09-16T09:27:50;3.97;;;1.65;;
63818;SDS011;49970;54.976;73.248;2022-09-16T09:32:33;12.57;;;1.70;;
63818;SDS011;49970;54.976;73.248;2022-09-16T09:35:39;19.15;;;1.63;;
63818;SDS011;49970;54.976;73.248;2022-09-16T09:41:11;4.22;;;1.55;;
63818;SDS011;49970;54.976;73.248;2022-09-16T09:43:54;4.80;;;1.60;;
63818;SDS011;49970;54.976;73.248;2022-09-16T09:46:38;10.48;;;1.80;;
63818;SDS011;49970;54.976;73.248;2022-09-16T09:49:11;21.75;;;1.70;;
63818;SDS011;49970;54.976;73.248;2022-09-16T09:51:53;5.40;;;1.75;;
63818;SDS011;49970;54.976;73.248;2022-09-16T09:54:40;4.95;;;1.92;;
63818;SDS011;49970;54.976;73.248;2022-09-16T09:57:19;12.07;;;1.55;;
63818;SDS011;49970;54.976;73.248;2022-09-16T09:59:56;15.85;;;1.73;;
63818;SDS011;49970;54.976;73.248;2022-09-16T10:02:43;5.40;;;1.60;;
63818;SDS011;49970;54.976;73.248;2022-09-16T10:05:24;2.75;;;1.55;;
63818;SDS011;49970;54.976;73.248;2022-09-16T10:08:11;2.20;;;1.95;;
63818;SDS011;49970;54.976;73.248;2022-09-16T10:10:48;10.50;;;1.40;;
63818;SDS011;49970;54.976;73.248;2022-09-16T10:13:25;10.38;;;1.95;;
63818;SDS011;49970;54.976;73.248;2022-09-16T10:19:18;4.18;;;1.13;;
63818;SDS011;49970;54.976;73.248;2022-09-16T10:21:50;10.15;;;1.52;;
63818;SDS011;49970;54.976;73.248;2022-09-16T10:24:34;14.60;;;1.20;;
63818;SDS011;49970;54.976;73.248;2022-09-16T10:27:22;16.17;;;1.65;;
63818;SDS011;49970;54.976;73.248;2022-09-16T10:35:35;4.88;;;1.30;;
63818;SDS011;49970;54.976;73.248;2022-09-16T10:40:50;8.98;;;2.05;;
63818;SDS011;49970;54.976;73.248;2022-09-16T10:43:25;11.25;;;1.65;;
63818;SDS011;49970;54.976;73.248;2022-09-16T10:45:54;7.30;;;1.73;;
63818;SDS011;49970;54.976;73.248;2022-09-16T10:48:23;15.68;;;1.80;;
63818;SDS011;49970;54.976;73.248;2022-09-16T10:50:53;6.18;;;1.50;;
63818;SDS011;49970;54.976;73.248;2022-09-16T10:53:37;6.97;;;1.30;;
63818;SDS011;49970;54.976;73.248;2022-09-16T10:56:06;10.45;;;1.52;;
63818;SDS011;49970;54.976;73.248;2022-09-16T10:58:41;12.13;;;1.70;;
63818;SDS011;49970;54.976;73.248;2022-09-16T11:01:23;17.42;;;1.67;;
63818;SDS011;49970;54.976;73.248;2022-09-16T11:04:13;8.70;;;1.50;;
63818;SDS011;49970;54.976;73.248;2022-09-16T11:07:06;9.18;;;1.40;;
63818;SDS011;49970;54.976;73.248;2022-09-16T11:12:38;7.97;;;1.50;;
63818;SDS011;49970;54.976;73.248;2022-09-16T11:15:22;1.88;;;0.90;;
63818;SDS011;49970;54.976;73.248;2022-09-16T11:18:13;3.60;;;1.08;;
63818;SDS011;49970;54.976;73.248;2022-09-16T11:20:54;12.02;;;1.00;;
63818;SDS011;49970;54.976;73.248;2022-09-16T11:26:11;4.25;;;1.27;;
63818;SDS011;49970;54.976;73.248;2022-09-16T11:29:09;8.85;;;1.50;;
63818;SDS011;49970;54.976;73.248;2022-09-16T11:37:29;7.18;;;1.08;;
63818;SDS011;49970;54.976;73.248;2022-09-16T11:50:47;9.20;;;1.92;;
63818;SDS011;49970;54.976;73.248;2022-09-16T11:53:44;24.70;;;2.15;;
63818;SDS011;49970;54.976;73.248;2022-09-16T12:02:15;9.05;;;1.40;;
63818;SDS011;49970;54.976;73.248;2022-09-16T12:05:20;11.40;;;1.23;;
63818;SDS011;49970;54.976;73.248;2022-09-16T12:07:53;15.00;;;1.10;;
63818;SDS011;49970;54.976;73.248;2022-09-16T12:13:07;16.77;;;1.50;;
63818;SDS011;49970;54.976;73.248;2022-09-16T12:15:50;15.60;;;1.60;;
63818;SDS011;49970;54.976;73.248;2022-09-16T12:18:34;10.25;;;1.85;;
63818;SDS011;49970;54.976;73.248;2022-09-16T12:21:09;28.65;;;2.25;;
63818;SDS011;49970;54.976;73.248;2022-09-16T12:23:49;36.95;;;2.35;;
63818;SDS011;49970;54.976;73.248;2022-09-16T12:27:12;15.15;;;2.10;;
63818;SDS011;49970;54.976;73.248;2022-09-16T12:35:44;55.80;;;5.20;;
63818;SDS011;49970;54.976;73.248;2022-09-16T12:38:23;36.30;;;4.22;;
63818;SDS011;49970;54.976;73.248;2022-09-16T12:46:24;26.17;;;3.70;;
63818;SDS011;49970;54.976;73.248;2022-09-16T12:49:40;13.25;;;3.38;;
63818;SDS011;49970;54.976;73.248;2022-09-16T12:52:31;24.35;;;3.72;;
63818;SDS011;49970;54.976;73.248;2022-09-16T12:55:22;12.63;;;3.63;;
63818;SDS011;49970;54.976;73.248;2022-09-16T13:01:45;24.48;;;4.65;;
63818;SDS011;49970;54.976;73.248;2022-09-16T13:04:23;25.48;;;4.85;;
63818;SDS011;49970;54.976;73.248;2022-09-16T13:07:23;23.83;;;5.57;;
63818;SDS011;49970;54.976;73.248;2022-09-16T13:10:06;50.87;;;8.27;;
63818;SDS011;49970;54.976;73.248;2022-09-16T13:15:23;47.05;;;9.75;;
63818;SDS011;49970;54.976;73.248;2022-09-16T13:20:39;34.85;;;10.25;;
63818;SDS011;49970;54.976;73.248;2022-09-16T13:23:13;36.53;;;11.70;;
63818;SDS011;49970;54.976;73.248;2022-09-16T13:25:58;67.85;;;12.65;;
63818;SDS011;49970;54.976;73.248;2022-09-16T13:36:32;42.70;;;11.05;;
63818;SDS011;49970;54.976;73.248;2022-09-16T13:39:00;43.03;;;12.70;;
63818;SDS011;49970;54.976;73.248;2022-09-16T13:41:42;40.37;;;15.00;;
63818;SDS011;49970;54.976;73.248;2022-09-16T13:52:31;67.32;;;17.25;;
63818;SDS011;49970;54.976;73.248;2022-09-16T13:55:00;51.97;;;17.52;;
63818;SDS011;49970;54.976;73.248;2022-09-16T14:00:24;66.80;;;21.83;;
63818;SDS011;49970;54.976;73.248;2022-09-16T14:03:14;83.47;;;22.48;;
63818;SDS011;49970;54.976;73.248;2022-09-16T14:11:42;89.30;;;32.35;;
63818;SDS011;49970;54.976;73.248;2022-09-16T14:14:18;127.22;;;40.10;;
63818;SDS011;49970;54.976;73.248;2022-09-16T14:18:11;142.80;;;48.13;;
63818;SDS011;49970;54.976;73.248;2022-09-16T14:22:20;137.65;;;57.00;;
63818;SDS011;49970;54.976;73.248;2022-09-16T14:25:50;163.90;;;64.80;;
63818;SDS011;49970;54.976;73.248;2022-09-16T14:30:17;169.77;;;69.65;;
63818;SDS011;49970;54.976;73.248;2022-09-16T14:33:54;202.30;;;90.95;;
63818;SDS011;49970;54.976;73.248;2022-09-16T14:37:59;197.85;;;98.57;;
63818;SDS011;49970;54.976;73.248;2022-09-16T14:49:38;274.88;;;146.68;;
63818;SDS011;49970;54.976;73.248;2022-09-16T14:53:33;281.42;;;160.45;;
63818;SDS011;49970;54.976;73.248;2022-09-16T14:57:29;305.00;;;174.77;;
63818;SDS011;49970;54.976;73.248;2022-09-16T15:00:01;288.20;;;172.23;;
63818;SDS011;49970;54.976;73.248;2022-09-16T15:02:38;296.60;;;166.23;;
63818;SDS011;49970;54.976;73.248;2022-09-16T15:05:26;273.70;;;158.65;;
63818;SDS011;49970;54.976;73.248;2022-09-16T15:08:08;264.25;;;151.27;;
63818;SDS011;49970;54.976;73.248;2022-09-16T15:10:44;251.65;;;135.82;;
63818;SDS011;49970;54.976;73.248;2022-09-16T15:13:16;245.77;;;134.68;;
63818;SDS011;49970;54.976;73.248;2022-09-16T15:17:06;216.85;;;119.65;;
63818;SDS011;49970;54.976;73.248;2022-09-16T15:20:58;223.70;;;114.28;;
63818;SDS011;49970;54.976;73.248;2022-09-16T15:24:44;202.85;;;108.18;;
63818;SDS011;49970;54.976;73.248;2022-09-16T15:28:35;198.73;;;103.20;;
63818;SDS011;49970;54.976;73.248;2022-09-16T15:32:41;188.85;;;97.72;;
63818;SDS011;49970;54.976;73.248;2022-09-16T15:36:38;182.52;;;92.72;;
63818;SDS011;49970;54.976;73.248;2022-09-16T15:43:39;185.40;;;87.82;;
63818;SDS011;49970;54.976;73.248;2022-09-16T15:46:13;163.80;;;79.57;;
63818;SDS011;49970;54.976;73.248;2022-09-16T15:49:10;164.95;;;80.43;;
63818;SDS011;49970;54.976;73.248;2022-09-16T15:51:46;175.35;;;77.50;;
63818;SDS011;49970;54.976;73.248;2022-09-16T15:59:44;134.80;;;60.38;;
63818;SDS011;49970;54.976;73.248;2022-09-16T16:02:42;142.38;;;57.08;;
63818;SDS011;49970;54.976;73.248;2022-09-16T16:05:26;123.72;;;53.90;;
63818;SDS011;49970;54.976;73.248;2022-09-16T16:08:04;118.28;;;53.33;;
63818;SDS011;49970;54.976;73.248;2022-09-16T16:10:42;133.02;;;49.97;;
63818;SDS011;49970;54.976;73.248;2022-09-16T16:14:33;119.53;;;46.30;;
63818;SDS011;49970;54.976;73.248;2022-09-16T16:17:01;115.13;;;46.35;;
63818;SDS011;49970;54.976;73.248;2022-09-16T16:19:30;118.07;;;43.50;;
63818;SDS011;49970;54.976;73.248;2022-09-16T16:21:57;96.28;;;43.35;;
63818;SDS011;49970;54.976;73.248;2022-09-16T16:24:26;101.18;;;42.17;;
63818;SDS011;49970;54.976;73.248;2022-09-16T16:26:53;97.65;;;41.63;;
63818;SDS011;49970;54.976;73.248;2022-09-16T16:29:20;102.30;;;39.33;;
63818;SDS011;49970;54.976;73.248;2022-09-16T16:32:01;106.50;;;38.90;;
63818;SDS011;49970;54.976;73.248;2022-09-16T16:34:37;86.22;;;37.28;;
63818;SDS011;49970;54.976;73.248;2022-09-16T16:37:05;123.65;;;38.95;;
63818;SDS011;49970;54.976;73.248;2022-09-16T16:39:32;106.35;;;37.05;;
63818;SDS011;49970;54.976;73.248;2022-09-16T16:41:59;98.03;;;38.85;;
63818;SDS011;49970;54.976;73.248;2022-09-16T16:44:31;106.50;;;35.78;;
63818;SDS011;49970;54.976;73.248;2022-09-16T16:46:58;94.53;;;35.15;;
63818;SDS011;49970;54.976;73.248;2022-09-16T16:49:24;84.18;;;36.08;;
63818;SDS011;49970;54.976;73.248;2022-09-16T16:52:01;76.05;;;34.38;;
63818;SDS011;49970;54.976;73.248;2022-09-16T16:54:30;82.07;;;35.53;;
63818;SDS011;49970;54.976;73.248;2022-09-16T16:56:56;89.93;;;32.65;;
63818;SDS011;49970;54.976;73.248;2022-09-16T16:59:23;89.55;;;33.60;;
63818;SDS011;49970;54.976;73.248;2022-09-16T17:01:52;76.40;;;30.65;;
63818;SDS011;49970;54.976;73.248;2022-09-16T17:04:25;71.38;;;30.98;;
63818;SDS011;49970;54.976;73.248;2022-09-16T17:06:52;89.45;;;30.73;;
63818;SDS011;49970;54.976;73.248;2022-09-16T17:09:19;87.93;;;30.40;;
63818;SDS011;49970;54.976;73.248;2022-09-16T17:11:49;77.30;;;30.20;;
63818;SDS011;49970;54.976;73.248;2022-09-16T17:14:17;79.40;;;31.25;;
63818;SDS011;49970;54.976;73.248;2022-09-16T17:16:44;85.63;;;33.00;;
63818;SDS011;49970;54.976;73.248;2022-09-16T17:19:25;80.78;;;30.85;;
63818;SDS011;49970;54.976;73.248;2022-09-16T17:21:51;68.13;;;28.10;;
63818;SDS011;49970;54.976;73.248;2022-09-16T17:24:18;65.35;;;28.52;;
63818;SDS011;49970;54.976;73.248;2022-09-16T17:26:45;84.15;;;30.38;;
63818;SDS011;49970;54.976;73.248;2022-09-16T17:29:17;63.65;;;28.83;;
63818;SDS011;49970;54.976;73.248;2022-09-16T17:31:43;81.65;;;29.15;;
63818;SDS011;49970;54.976;73.248;2022-09-16T17:34:13;61.58;;;27.23;;
63818;SDS011;49970;54.976;73.248;2022-09-16T17:36:44;62.17;;;27.65;;
63818;SDS011;49970;54.976;73.248;2022-09-16T17:39:17;67.90;;;27.38;;
63818;SDS011;49970;54.976;73.248;2022-09-16T17:41:47;71.20;;;26.00;;
63818;SDS011;49970;54.976;73.248;2022-09-16T17:44:17;88.07;;;27.48;;
63818;SDS011;49970;54.976;73.248;2022-09-16T17:46:44;78.75;;;27.95;;
63818;SDS011;49970;54.976;73.248;2022-09-16T17:49:15;69.68;;;26.95;;
63818;SDS011;49970;54.976;73.248;2022-09-16T17:51:43;78.97;;;27.75;;
63818;SDS011;49970;54.976;73.248;2022-09-16T17:54:10;79.13;;;27.45;;
63818;SDS011;49970;54.976;73.248;2022-09-16T17:56:40;76.40;;;28.58;;